createdAt,value
2023-03-04T00:00:06.569Z,61.35
2023-03-04T00:02:37.066Z,50.95
2023-03-04T00:05:04.117Z,63.92
2023-03-04T00:07:30.810Z,62.25
2023-03-04T00:09:57.617Z,62.28
2023-03-04T00:12:24.262Z,71.72
2023-03-04T00:14:51.009Z,67.25
2023-03-04T00:17:17.663Z,65.93
2023-03-04T00:19:44.296Z,57.13
2023-03-04T00:22:11.073Z,52.92
2023-03-04T00:24:37.703Z,63.42
2023-03-04T00:27:04.413Z,72.30
2023-03-04T00:29:30.999Z,52.90
2023-03-04T00:31:57.766Z,60.03
2023-03-04T00:34:24.573Z,54.38
2023-03-04T00:36:51.704Z,53.38
2023-03-04T00:39:18.278Z,51.45
2023-03-04T00:41:44.933Z,54.00
2023-03-04T00:44:12.880Z,57.63
2023-03-04T00:46:39.438Z,55.30
2023-03-04T00:49:06.024Z,62.92
2023-03-04T00:51:32.797Z,72.05
2023-03-04T00:54:00.937Z,83.53
2023-03-04T00:56:28.602Z,74.15
2023-03-04T00:58:55.822Z,71.88
2023-03-04T01:01:22.718Z,74.03
2023-03-04T01:03:49.622Z,74.57
2023-03-04T01:06:16.362Z,88.72
2023-03-04T01:08:44.605Z,78.90
2023-03-04T01:11:11.260Z,86.50
2023-03-04T01:13:38.178Z,68.10
2023-03-04T01:16:05.181Z,80.03
2023-03-04T01:18:32.380Z,83.25
2023-03-04T01:20:59.641Z,78.20
2023-03-04T01:23:26.336Z,81.68
2023-03-04T01:25:53.362Z,84.82
2023-03-04T01:28:20.058Z,73.85
2023-03-04T01:30:47.996Z,81.43
2023-03-04T01:33:14.889Z,81.50
2023-03-04T01:35:42.511Z,65.68
2023-03-04T01:38:09.160Z,72.15
2023-03-04T01:40:36.952Z,76.63
2023-03-04T01:43:03.782Z,76.20
2023-03-04T01:45:32.455Z,73.07
2023-03-04T01:47:59.139Z,72.60
2023-03-04T01:50:33.845Z,66.18
2023-03-04T01:53:01.748Z,75.68
2023-03-04T01:55:29.483Z,71.25
2023-03-04T01:57:56.324Z,75.72
2023-03-04T02:00:43.826Z,74.53
2023-03-04T02:03:15.172Z,61.42
2023-03-04T02:05:45.835Z,54.20
2023-03-04T02:08:15.348Z,67.85
2023-03-04T02:10:43.508Z,65.68
2023-03-04T02:13:13.096Z,65.57
2023-03-04T02:15:39.997Z,68.28
2023-03-04T02:18:25.541Z,60.88
2023-03-04T02:21:14.446Z,68.63
2023-03-04T02:23:48.052Z,75.15
2023-03-04T02:26:17.524Z,71.30
2023-03-04T02:28:48.432Z,66.07
2023-03-04T02:31:24.110Z,75.05
2023-03-04T02:33:52.748Z,62.15
2023-03-04T02:36:21.077Z,62.90
2023-03-04T02:38:51.329Z,58.65
2023-03-04T02:41:21.034Z,56.97
2023-03-04T02:43:52.270Z,60.38
2023-03-04T02:46:19.488Z,54.83
2023-03-04T02:48:47.213Z,62.42
2023-03-04T02:51:13.883Z,62.92
2023-03-04T02:53:40.768Z,48.92
2023-03-04T02:56:07.743Z,56.08
2023-03-04T02:58:36.739Z,52.10
2023-03-04T03:01:03.610Z,49.80
2023-03-04T03:03:30.350Z,49.25
2023-03-04T03:05:57.050Z,47.80
2023-03-04T03:08:25.477Z,53.08
2023-03-04T03:15:50.052Z,40.05
2023-03-04T03:18:16.910Z,40.10
2023-03-04T03:20:43.522Z,46.38
2023-03-04T03:23:10.313Z,41.15
2023-03-04T03:25:36.940Z,52.53
2023-03-04T03:28:05.680Z,47.50
2023-03-04T03:30:32.329Z,50.65
2023-03-04T03:32:58.904Z,39.72
2023-03-04T03:35:25.661Z,55.85
2023-03-04T03:37:52.334Z,49.05
2023-03-04T03:40:18.965Z,50.20
2023-03-04T03:42:45.603Z,52.72
2023-03-04T03:45:12.299Z,51.72
2023-03-04T03:47:38.903Z,51.08
2023-03-04T03:50:06.030Z,49.00
2023-03-04T03:52:32.644Z,41.77
2023-03-04T03:55:01.659Z,49.05
2023-03-04T03:57:29.753Z,49.08
2023-03-04T03:59:57.008Z,47.28
2023-03-04T04:02:25.672Z,47.63
2023-03-04T04:04:54.141Z,53.80
2023-03-04T04:07:20.732Z,52.88
2023-03-04T04:09:47.400Z,44.17
2023-03-04T04:12:18.810Z,45.88
2023-03-04T04:14:45.714Z,53.58
2023-03-04T04:17:13.023Z,49.67
2023-03-04T04:19:41.041Z,47.95
2023-03-04T04:24:35.274Z,47.30
2023-03-04T04:27:02.148Z,43.30
2023-03-04T04:29:29.142Z,49.07
2023-03-04T04:31:55.947Z,49.45
2023-03-04T04:34:22.677Z,45.08
2023-03-04T04:36:49.578Z,45.40
2023-03-04T04:39:16.218Z,41.72
2023-03-04T04:41:44.988Z,44.13
2023-03-04T04:44:13.156Z,45.97
2023-03-04T04:46:40.263Z,43.97
2023-03-04T04:49:07.825Z,42.30
2023-03-04T04:51:37.077Z,41.25
2023-03-04T04:54:04.500Z,42.08
2023-03-04T04:56:31.550Z,41.25
2023-03-04T04:59:00.536Z,42.47
2023-03-04T05:01:27.759Z,45.75
2023-03-04T05:03:54.710Z,42.08
2023-03-04T05:06:24.157Z,37.20
2023-03-04T05:08:51.628Z,41.70
2023-03-04T05:11:19.313Z,39.15
2023-03-04T05:13:46.690Z,45.72
2023-03-04T05:16:13.440Z,43.83
2023-03-04T05:18:40.440Z,38.72
2023-03-04T05:21:07.188Z,45.42
2023-03-04T05:23:36.845Z,41.20
2023-03-04T05:26:04.722Z,44.78
2023-03-04T05:28:31.592Z,46.58
2023-03-04T05:30:58.422Z,39.05
2023-03-04T05:33:25.110Z,40.60
2023-03-04T05:35:52.228Z,47.78
2023-03-04T05:38:22.801Z,45.47
2023-03-04T05:41:03.688Z,41.13
2023-03-04T05:43:32.136Z,41.85
2023-03-04T05:46:05.436Z,44.35
2023-03-04T05:48:49.735Z,40.10
2023-03-04T05:51:16.392Z,42.40
2023-03-04T05:56:31.287Z,38.80
2023-03-04T05:58:58.373Z,36.25
2023-03-04T06:01:25.798Z,47.97
2023-03-04T06:03:53.106Z,41.70
2023-03-04T06:06:20.318Z,39.65
2023-03-04T06:08:49.770Z,40.30
2023-03-04T06:11:16.657Z,46.67
2023-03-04T06:13:43.392Z,41.47
2023-03-04T06:16:15.812Z,43.20
2023-03-04T06:18:44.820Z,43.05
2023-03-04T06:21:11.974Z,41.67
2023-03-04T06:23:39.273Z,37.20
2023-03-04T06:26:09.427Z,37.15
2023-03-04T06:28:36.112Z,39.33
2023-03-04T06:31:02.900Z,40.88
2023-03-04T06:33:29.503Z,36.92
2023-03-04T06:35:57.337Z,36.28
2023-03-04T06:38:25.369Z,39.22
2023-03-04T06:40:52.282Z,35.90
2023-03-04T06:43:19.744Z,41.83
2023-03-04T06:45:46.658Z,38.65
2023-03-04T06:48:13.427Z,45.03
2023-03-04T06:50:40.612Z,48.38
2023-03-04T06:53:07.305Z,42.07
2023-03-04T06:55:34.016Z,41.38
2023-03-04T06:58:00.699Z,54.45
2023-03-04T07:00:27.592Z,49.00
2023-03-04T07:02:55.396Z,40.75
2023-03-04T07:05:22.020Z,47.35
2023-03-04T07:07:48.858Z,47.63
2023-03-04T07:10:15.429Z,51.20
2023-03-04T07:12:42.134Z,50.55
2023-03-04T07:15:09.656Z,53.17
2023-03-04T07:17:36.591Z,51.38
2023-03-04T07:20:03.896Z,52.17
2023-03-04T07:22:33.122Z,42.00
2023-03-04T07:25:02.627Z,43.08
2023-03-04T07:27:29.356Z,41.38
2023-03-04T07:29:56.094Z,39.38
2023-03-04T07:32:23.049Z,43.47
2023-03-04T07:34:49.944Z,41.47
2023-03-04T07:37:17.036Z,44.58
2023-03-04T07:39:44.918Z,51.20
2023-03-04T07:42:11.701Z,34.10
2023-03-04T07:44:41.077Z,46.13
2023-03-04T07:47:07.680Z,40.22
2023-03-04T07:49:34.344Z,45.38
2023-03-04T07:52:04.704Z,53.85
2023-03-04T07:54:32.937Z,44.67
2023-03-04T07:56:59.893Z,44.70
2023-03-04T07:59:26.672Z,41.78
2023-03-04T08:01:53.344Z,51.78
2023-03-04T08:04:20.121Z,48.42
2023-03-04T08:06:47.042Z,45.15
2023-03-04T08:09:14.203Z,44.58
2023-03-04T08:11:42.105Z,49.40
2023-03-04T08:14:12.086Z,53.50
2023-03-04T08:16:40.288Z,49.55
2023-03-04T08:19:07.938Z,53.20
2023-03-04T08:21:35.702Z,46.17
2023-03-04T08:24:03.494Z,50.10
2023-03-04T08:26:33.635Z,54.63
2023-03-04T08:29:02.367Z,57.50
2023-03-04T08:31:31.482Z,55.63
2023-03-04T08:33:58.227Z,51.70
2023-03-04T08:36:27.408Z,50.08
2023-03-04T08:38:54.498Z,53.90
2023-03-04T08:41:22.450Z,54.00
2023-03-04T08:43:49.200Z,55.50
2023-03-04T08:46:16.107Z,55.08
2023-03-04T08:48:43.052Z,51.10
2023-03-04T08:51:17.399Z,55.90
2023-03-04T08:53:45.025Z,58.08
2023-03-04T08:56:13.524Z,54.65
2023-03-04T08:58:40.627Z,52.88
2023-03-04T09:01:12.528Z,53.53
2023-03-04T09:03:40.226Z,59.45
2023-03-04T09:06:08.777Z,58.38
2023-03-04T09:08:35.621Z,51.53
2023-03-04T09:11:02.680Z,54.28
2023-03-04T09:13:31.239Z,49.08
2023-03-04T09:15:58.935Z,49.70
2023-03-04T09:18:28.766Z,53.45
2023-03-04T09:20:55.662Z,51.47
2023-03-04T09:23:23.037Z,51.70
2023-03-04T09:25:49.844Z,56.03
2023-03-04T09:28:18.485Z,51.80
2023-03-04T09:30:50.244Z,52.80
2023-03-04T09:33:17.532Z,77.47
2023-03-04T09:35:44.381Z,66.75
2023-03-04T09:38:11.228Z,51.47
2023-03-04T09:40:38.031Z,42.35
2023-03-04T09:43:07.012Z,49.13
2023-03-04T09:45:47.195Z,49.75
2023-03-04T09:48:18.075Z,46.50
2023-03-04T09:51:18.050Z,85.38
2023-03-04T09:54:23.095Z,56.85
2023-03-04T09:56:56.930Z,46.10
2023-03-04T09:59:41.528Z,44.33
2023-03-04T10:02:28.161Z,54.55
2023-03-04T10:05:00.874Z,44.50
2023-03-04T10:07:35.406Z,49.92
2023-03-04T10:10:07.205Z,49.45
2023-03-04T10:12:38.413Z,47.08
2023-03-04T10:15:17.230Z,53.25
2023-03-04T10:17:48.788Z,50.20
2023-03-04T10:20:26.354Z,45.55
2023-03-04T10:22:59.940Z,49.20
2023-03-04T10:25:32.843Z,56.97
2023-03-04T10:28:04.887Z,45.88
2023-03-04T10:30:57.076Z,42.08
2023-03-04T10:33:30.256Z,49.05
2023-03-04T10:36:01.973Z,54.97
2023-03-04T10:38:35.758Z,54.50
2023-03-04T10:41:16.073Z,57.83
2023-03-04T10:43:43.808Z,65.82
2023-03-04T10:46:12.005Z,42.58
2023-03-04T10:48:43.193Z,50.00
2023-03-04T10:51:22.408Z,47.95
2023-03-04T10:53:53.121Z,47.20
2023-03-04T10:56:42.682Z,58.15
2023-03-04T10:59:35.023Z,49.92
2023-03-04T11:02:14.580Z,38.88
2023-03-04T11:04:41.285Z,38.38
2023-03-04T11:07:11.534Z,44.92
2023-03-04T11:09:38.381Z,45.63
2023-03-04T11:12:11.969Z,54.17
2023-03-04T11:14:58.959Z,49.17
2023-03-04T11:17:28.172Z,47.08
2023-03-04T11:20:06.014Z,44.63
2023-03-04T11:25:05.934Z,47.00
2023-03-04T11:27:33.563Z,50.78
2023-03-04T11:30:29.145Z,45.33
2023-03-04T11:33:08.801Z,43.47
2023-03-04T11:35:44.025Z,47.13
2023-03-04T11:38:24.690Z,48.65
2023-03-04T11:40:58.743Z,42.40
2023-03-04T11:43:34.863Z,42.47
2023-03-04T11:46:24.221Z,50.25
2023-03-04T11:49:14.686Z,46.40
2023-03-04T11:51:46.575Z,48.30
2023-03-04T11:54:23.553Z,51.42
2023-03-04T11:57:04.661Z,43.10
2023-03-04T12:00:15.843Z,53.00
2023-03-04T12:02:54.637Z,43.65
2023-03-04T12:05:29.894Z,51.55
2023-03-04T12:08:21.731Z,51.53
2023-03-04T12:11:00.103Z,56.47
2023-03-04T12:13:39.645Z,51.65
2023-03-04T12:16:19.267Z,53.83
2023-03-04T12:18:56.560Z,47.75
2023-03-04T12:21:41.934Z,43.08
2023-03-04T12:24:21.368Z,45.53
2023-03-04T12:27:01.284Z,43.05
2023-03-04T12:29:36.582Z,46.78
2023-03-04T12:32:22.532Z,49.10
2023-03-04T12:35:27.331Z,45.17
2023-03-04T12:38:18.671Z,40.88
2023-03-04T12:40:53.755Z,43.70
2023-03-04T12:43:47.928Z,47.10
2023-03-04T12:46:22.222Z,46.38
2023-03-04T12:49:09.828Z,46.28
2023-03-04T12:51:50.985Z,35.67
2023-03-04T12:54:27.757Z,44.10
2023-03-04T12:57:26.987Z,43.55
2023-03-04T13:00:23.119Z,54.50
2023-03-04T13:02:58.587Z,45.33
2023-03-04T13:06:05.876Z,42.35
2023-03-04T13:08:44.124Z,42.53
2023-03-04T13:11:31.008Z,43.88
2023-03-04T13:14:13.623Z,46.97
2023-03-04T13:17:01.348Z,40.67
2023-03-04T13:19:57.350Z,40.33
2023-03-04T13:22:39.159Z,40.35
2023-03-04T13:25:27.508Z,32.85
2023-03-04T13:28:00.538Z,29.70
2023-03-04T13:33:14.082Z,27.60
2023-03-04T13:35:46.725Z,30.17
2023-03-04T13:38:28.732Z,25.60
2023-03-04T13:41:13.856Z,24.63
2023-03-04T13:43:44.599Z,30.10
2023-03-04T13:46:21.331Z,30.20
2023-03-04T13:48:51.264Z,32.60
2023-03-04T13:51:28.927Z,32.75
2023-03-04T13:54:08.170Z,28.63
2023-03-04T13:57:00.853Z,28.08
2023-03-04T13:59:29.698Z,34.08
2023-03-04T14:02:10.465Z,31.88
2023-03-04T14:04:39.114Z,32.60
2023-03-04T14:07:20.715Z,30.85
2023-03-04T14:10:02.662Z,33.63
2023-03-04T14:12:32.499Z,35.97
2023-03-04T14:15:04.312Z,29.35
2023-03-04T14:17:36.529Z,31.63
2023-03-04T14:20:05.896Z,30.85
2023-03-04T14:22:39.084Z,31.23
2023-03-04T14:25:14.701Z,32.10
2023-03-04T14:27:41.484Z,31.23
2023-03-04T14:30:40.791Z,28.48
2023-03-04T14:33:15.978Z,106.30
2023-03-04T14:35:48.002Z,38.97
2023-03-04T14:38:25.940Z,27.38
2023-03-04T14:41:05.749Z,29.90
2023-03-04T14:43:38.395Z,37.20
2023-03-04T14:46:12.380Z,36.20
2023-03-04T14:48:39.773Z,27.73
2023-03-04T14:51:06.515Z,29.50
2023-03-04T14:53:33.982Z,28.85
2023-03-04T14:56:09.217Z,31.15
2023-03-04T14:58:37.614Z,26.83
2023-03-04T15:01:20.189Z,26.02
2023-03-04T15:03:58.092Z,33.88
2023-03-04T15:06:27.200Z,31.48
2023-03-04T15:08:58.594Z,31.92
2023-03-04T15:11:32.783Z,28.63
2023-03-04T15:14:01.965Z,29.10
2023-03-04T15:16:49.254Z,23.35
2023-03-04T15:19:28.583Z,28.85
2023-03-04T15:22:06.685Z,31.75
2023-03-04T15:24:35.916Z,29.52
2023-03-04T15:27:02.842Z,28.10
2023-03-04T15:29:29.476Z,28.90
2023-03-04T15:31:56.242Z,27.02
2023-03-04T15:34:22.860Z,35.85
2023-03-04T15:36:51.086Z,30.00
2023-03-04T15:39:19.480Z,29.85
2023-03-04T15:41:46.162Z,31.92
2023-03-04T15:44:13.160Z,33.67
2023-03-04T15:46:40.255Z,29.23
2023-03-04T15:49:06.912Z,27.00
2023-03-04T15:51:33.732Z,31.58
2023-03-04T15:54:01.125Z,30.35
2023-03-04T15:56:31.114Z,34.80
2023-03-04T15:59:06.389Z,31.20
2023-03-04T16:01:33.078Z,31.20
2023-03-04T16:03:59.788Z,28.00
2023-03-04T16:06:30.682Z,27.13
2023-03-04T16:08:58.533Z,29.55
2023-03-04T16:11:30.144Z,34.13
2023-03-04T16:13:57.449Z,26.27
2023-03-04T16:16:24.235Z,29.70
2023-03-04T16:18:50.872Z,22.95
2023-03-04T16:21:20.417Z,31.38
2023-03-04T16:23:49.046Z,45.92
2023-03-04T16:26:18.517Z,31.40
2023-03-04T16:28:48.569Z,28.00
2023-03-04T16:31:15.882Z,30.83
2023-03-04T16:33:45.475Z,37.03
2023-03-04T16:36:22.223Z,36.72
2023-03-04T16:38:49.817Z,29.40
2023-03-04T16:41:17.813Z,45.33
2023-03-04T16:46:12.857Z,24.15
2023-03-04T16:48:40.364Z,32.42
2023-03-04T16:51:14.397Z,28.40
2023-03-04T16:53:43.795Z,25.75
2023-03-04T16:56:14.079Z,32.92
2023-03-04T16:58:41.803Z,25.83
2023-03-04T17:01:16.543Z,23.85
2023-03-04T17:03:43.352Z,27.67
2023-03-04T17:06:11.125Z,31.33
2023-03-04T17:08:38.072Z,33.92
2023-03-04T17:11:04.815Z,34.35
2023-03-04T17:13:31.607Z,32.67
2023-03-04T17:16:03.147Z,32.60
2023-03-04T17:18:30.367Z,31.63
2023-03-04T17:21:07.459Z,29.98
2023-03-04T17:23:35.636Z,33.63
2023-03-04T17:26:02.649Z,35.55
2023-03-04T17:28:33.117Z,24.80
2023-03-04T17:30:59.777Z,32.83
2023-03-04T17:33:26.750Z,34.78
2023-03-04T17:35:55.805Z,29.92
2023-03-04T17:38:22.444Z,33.75
2023-03-04T17:40:49.109Z,34.53
2023-03-04T17:43:15.701Z,37.47
2023-03-04T17:45:42.880Z,31.15
2023-03-04T17:48:11.717Z,29.83
2023-03-04T17:50:38.404Z,25.08
2023-03-04T17:53:05.008Z,39.88
2023-03-04T17:55:31.681Z,37.80
2023-03-04T17:57:58.416Z,48.33
2023-03-04T18:00:25.391Z,37.83
2023-03-04T18:02:52.036Z,37.83
2023-03-04T18:05:18.800Z,27.45
2023-03-04T18:07:45.472Z,34.78
2023-03-04T18:10:12.439Z,37.35
2023-03-04T18:12:39.158Z,34.95
2023-03-04T18:15:06.445Z,34.53
2023-03-04T18:17:33.104Z,30.00
2023-03-04T18:19:59.921Z,29.42
2023-03-04T18:22:26.652Z,35.97
2023-03-04T18:24:53.553Z,28.45
2023-03-04T18:27:20.315Z,41.25
2023-03-04T18:29:46.989Z,58.75
2023-03-04T18:32:13.851Z,36.00
2023-03-04T18:34:40.708Z,32.63
2023-03-04T18:37:07.397Z,39.10
2023-03-04T18:39:34.008Z,39.58
2023-03-04T18:42:01.108Z,36.65
2023-03-04T18:44:27.754Z,34.78
2023-03-04T18:46:56.697Z,32.22
2023-03-04T18:49:24.119Z,31.92
2023-03-04T18:51:51.726Z,34.17
2023-03-04T18:54:18.402Z,39.80
2023-03-04T18:56:51.392Z,34.53
2023-03-04T18:59:20.348Z,33.42
2023-03-04T19:01:48.081Z,33.78
2023-03-04T19:04:15.939Z,29.00
2023-03-04T19:06:42.945Z,27.55
2023-03-04T19:09:10.622Z,30.38
2023-03-04T19:11:37.448Z,37.33
2023-03-04T19:14:04.602Z,26.42
2023-03-04T19:16:31.485Z,27.17
2023-03-04T19:18:58.293Z,27.50
2023-03-04T19:21:24.914Z,29.10
2023-03-04T19:23:51.532Z,23.92
2023-03-04T19:26:20.373Z,29.17
2023-03-04T19:28:47.075Z,27.00
2023-03-04T19:31:14.013Z,28.98
2023-03-04T19:33:41.055Z,23.52
2023-03-04T19:36:08.987Z,24.67
2023-03-04T19:38:35.948Z,29.25
2023-03-04T19:41:14.630Z,26.70
2023-03-04T19:43:41.474Z,34.38
2023-03-04T19:46:09.659Z,32.88
2023-03-04T19:48:37.882Z,29.73
2023-03-04T19:53:34.620Z,33.40
2023-03-04T19:56:01.665Z,33.67
2023-03-04T19:58:28.574Z,37.70
2023-03-04T20:00:55.333Z,24.92
2023-03-04T20:03:22.208Z,26.02
2023-03-04T20:05:48.923Z,30.85
2023-03-04T20:08:15.603Z,28.10
2023-03-04T20:10:42.319Z,24.25
2023-03-04T20:13:09.911Z,31.90
2023-03-04T20:15:36.703Z,27.30
2023-03-04T20:18:04.471Z,26.92
2023-03-04T20:20:31.411Z,24.58
2023-03-04T20:22:58.667Z,35.88
2023-03-04T20:25:25.535Z,28.67
2023-03-04T20:27:52.252Z,32.55
2023-03-04T20:30:21.356Z,28.85
2023-03-04T20:32:48.080Z,28.20
2023-03-04T20:35:15.066Z,35.75
2023-03-04T20:37:43.036Z,28.48
2023-03-04T20:40:11.360Z,32.92
2023-03-04T20:42:38.104Z,24.50
2023-03-04T20:45:07.866Z,28.42
2023-03-04T20:47:34.803Z,29.50
2023-03-04T20:50:01.551Z,32.05
2023-03-04T20:52:28.252Z,34.08
2023-03-04T20:54:54.921Z,28.20
2023-03-04T20:57:21.608Z,28.92
2023-03-04T20:59:50.009Z,29.70
2023-03-04T21:02:18.849Z,22.98
2023-03-04T21:04:45.735Z,28.65
2023-03-04T21:07:14.259Z,30.05
2023-03-04T21:09:41.001Z,25.27
2023-03-04T21:12:08.094Z,24.60
2023-03-04T21:14:35.443Z,24.13
2023-03-04T21:17:04.543Z,28.08
2023-03-04T21:19:34.279Z,29.10
2023-03-04T21:22:01.819Z,29.55
2023-03-04T21:24:31.722Z,26.55
2023-03-04T21:26:58.571Z,28.42
2023-03-04T21:29:26.465Z,28.77
2023-03-04T21:34:46.289Z,27.75
2023-03-04T21:37:18.564Z,23.95
2023-03-04T21:42:12.096Z,21.60
2023-03-04T21:44:50.113Z,30.70
2023-03-04T21:47:17.183Z,26.55
2023-03-04T21:49:44.258Z,32.50
2023-03-04T21:52:11.046Z,32.78
2023-03-04T21:54:37.889Z,25.88
2023-03-04T21:57:04.770Z,27.23
2023-03-04T21:59:33.198Z,31.08
2023-03-04T22:01:59.844Z,24.65
2023-03-04T22:04:26.682Z,31.00
2023-03-04T22:06:53.444Z,29.35
2023-03-04T22:09:20.352Z,29.15
2023-03-04T22:11:48.048Z,29.60
2023-03-04T22:14:14.844Z,34.13
2023-03-04T22:16:55.490Z,33.25
2023-03-04T22:19:24.493Z,37.08
2023-03-04T22:21:52.881Z,34.63
2023-03-04T22:24:20.368Z,36.63
2023-03-04T22:26:47.121Z,36.10
2023-03-04T22:29:13.927Z,38.58
2023-03-04T22:31:40.665Z,35.33
2023-03-04T22:34:10.637Z,34.30
2023-03-04T22:36:40.058Z,45.90
2023-03-04T22:39:08.894Z,33.45
2023-03-04T22:41:35.701Z,37.47
2023-03-04T22:44:02.549Z,48.13
2023-03-04T22:46:31.477Z,37.20
2023-03-04T22:49:00.649Z,33.35
2023-03-04T22:51:28.497Z,47.40
2023-03-04T22:53:56.110Z,37.38
2023-03-04T22:56:23.005Z,33.58
2023-03-04T22:58:50.212Z,37.30
2023-03-04T23:01:18.725Z,38.87
2023-03-04T23:03:48.260Z,31.02
2023-03-04T23:12:43.841Z,39.78
2023-03-04T23:15:13.310Z,39.25
2023-03-04T23:17:47.430Z,45.85
2023-03-04T23:20:20.896Z,48.08
2023-03-04T23:22:48.985Z,35.30
2023-03-04T23:25:17.928Z,38.65
2023-03-04T23:27:44.663Z,35.28
2023-03-04T23:30:15.941Z,35.42
2023-03-04T23:32:44.584Z,39.55
2023-03-04T23:35:13.176Z,38.80
2023-03-04T23:37:39.892Z,40.63
2023-03-04T23:40:08.078Z,46.25
2023-03-04T23:42:34.719Z,39.28
2023-03-04T23:45:01.450Z,39.20
2023-03-04T23:47:28.272Z,48.03
2023-03-04T23:49:54.963Z,36.70
2023-03-04T23:52:21.664Z,39.85
2023-03-04T23:54:48.312Z,40.95
2023-03-04T23:57:15.031Z,41.55
2023-03-04T23:59:41.750Z,36.72
